sensor_id;sensor_type;location;lat;lon;timestamp;temperature;humidity
12006;DHT22;6062;47.294;12.182;2023-02-12T00:02:17;3.20;43.40
12006;DHT22;6062;47.294;12.182;2023-02-12T00:04:43;3.20;43.40
12006;DHT22;6062;47.294;12.182;2023-02-12T00:07:09;3.20;43.40
12006;DHT22;6062;47.294;12.182;2023-02-12T00:09:36;3.20;43.10
12006;DHT22;6062;47.294;12.182;2023-02-12T00:12:02;3.20;42.80
12006;DHT22;6062;47.294;12.182;2023-02-12T00:14:28;3.30;42.90
12006;DHT22;6062;47.294;12.182;2023-02-12T00:16:53;3.30;42.90
12006;DHT22;6062;47.294;12.182;2023-02-12T00:19:19;3.30;42.80
12006;DHT22;6062;47.294;12.182;2023-02-12T00:21:45;3.30;42.60
12006;DHT22;6062;47.294;12.182;2023-02-12T00:24:10;3.30;42.60
12006;DHT22;6062;47.294;12.182;2023-02-12T00:26:36;3.30;42.60
12006;DHT22;6062;47.294;12.182;2023-02-12T00:29:02;3.40;42.80
12006;DHT22;6062;47.294;12.182;2023-02-12T00:31:29;3.40;42.60
12006;DHT22;6062;47.294;12.182;2023-02-12T00:33:56;3.40;42.00
12006;DHT22;6062;47.294;12.182;2023-02-12T00:36:25;3.40;41.50
12006;DHT22;6062;47.294;12.182;2023-02-12T00:38:53;3.40;41.20
12006;DHT22;6062;47.294;12.182;2023-02-12T00:41:21;3.40;41.10
12006;DHT22;6062;47.294;12.182;2023-02-12T00:43:48;3.40;40.80
12006;DHT22;6062;47.294;12.182;2023-02-12T00:46:14;3.40;41.00
12006;DHT22;6062;47.294;12.182;2023-02-12T00:48:39;3.30;41.20
12006;DHT22;6062;47.294;12.182;2023-02-12T00:51:06;3.30;41.50
12006;DHT22;6062;47.294;12.182;2023-02-12T00:53:32;3.30;41.40
12006;DHT22;6062;47.294;12.182;2023-02-12T00:55:59;3.30;42.00
12006;DHT22;6062;47.294;12.182;2023-02-12T00:58:25;3.30;42.00
12006;DHT22;6062;47.294;12.182;2023-02-12T01:00:51;3.30;41.80
12006;DHT22;6062;47.294;12.182;2023-02-12T01:03:18;3.30;41.60
12006;DHT22;6062;47.294;12.182;2023-02-12T01:05:45;3.30;41.30
12006;DHT22;6062;47.294;12.182;2023-02-12T01:08:12;3.30;41.50
12006;DHT22;6062;47.294;12.182;2023-02-12T01:10:40;3.30;41.80
12006;DHT22;6062;47.294;12.182;2023-02-12T01:13:12;3.30;41.70
12006;DHT22;6062;47.294;12.182;2023-02-12T01:15:40;3.30;41.70
12006;DHT22;6062;47.294;12.182;2023-02-12T01:18:06;3.30;41.70
12006;DHT22;6062;47.294;12.182;2023-02-12T01:20:32;3.30;41.80
12006;DHT22;6062;47.294;12.182;2023-02-12T01:22:58;3.30;41.70
12006;DHT22;6062;47.294;12.182;2023-02-12T01:25:26;3.40;41.70
12006;DHT22;6062;47.294;12.182;2023-02-12T01:27:52;3.40;42.00
12006;DHT22;6062;47.294;12.182;2023-02-12T01:30:18;3.40;42.20
12006;DHT22;6062;47.294;12.182;2023-02-12T01:32:47;3.40;42.30
12006;DHT22;6062;47.294;12.182;2023-02-12T01:35:13;3.40;42.70
12006;DHT22;6062;47.294;12.182;2023-02-12T01:37:38;3.50;42.50
12006;DHT22;6062;47.294;12.182;2023-02-12T01:40:05;3.50;42.50
12006;DHT22;6062;47.294;12.182;2023-02-12T01:42:33;3.50;42.90
12006;DHT22;6062;47.294;12.182;2023-02-12T01:47:41;3.50;42.60
12006;DHT22;6062;47.294;12.182;2023-02-12T01:50:11;3.60;42.60
12006;DHT22;6062;47.294;12.182;2023-02-12T01:52:47;3.60;42.60
12006;DHT22;6062;47.294;12.182;2023-02-12T01:55:19;3.60;42.80
12006;DHT22;6062;47.294;12.182;2023-02-12T01:57:47;3.70;43.00
12006;DHT22;6062;47.294;12.182;2023-02-12T02:00:15;3.70;43.00
12006;DHT22;6062;47.294;12.182;2023-02-12T02:02:46;3.70;43.00
12006;DHT22;6062;47.294;12.182;2023-02-12T02:05:22;3.70;42.90
12006;DHT22;6062;47.294;12.182;2023-02-12T02:07:55;3.70;42.90
12006;DHT22;6062;47.294;12.182;2023-02-12T02:10:21;3.70;42.90
12006;DHT22;6062;47.294;12.182;2023-02-12T02:12:47;3.70;43.20
12006;DHT22;6062;47.294;12.182;2023-02-12T02:15:31;3.70;43.20
12006;DHT22;6062;47.294;12.182;2023-02-12T02:18:10;3.70;43.40
12006;DHT22;6062;47.294;12.182;2023-02-12T02:21:18;3.60;43.00
12006;DHT22;6062;47.294;12.182;2023-02-12T02:24:40;3.60;43.30
12006;DHT22;6062;47.294;12.182;2023-02-12T02:39:36;3.50;44.20
12006;DHT22;6062;47.294;12.182;2023-02-12T02:45:00;3.50;43.60
12006;DHT22;6062;47.294;12.182;2023-02-12T02:47:57;3.50;42.90
12006;DHT22;6062;47.294;12.182;2023-02-12T02:50:28;3.50;42.90
12006;DHT22;6062;47.294;12.182;2023-02-12T02:53:01;3.50;42.90
12006;DHT22;6062;47.294;12.182;2023-02-12T02:55:37;3.50;42.00
12006;DHT22;6062;47.294;12.182;2023-02-12T02:58:13;3.50;41.40
12006;DHT22;6062;47.294;12.182;2023-02-12T03:01:02;3.40;41.30
12006;DHT22;6062;47.294;12.182;2023-02-12T03:03:45;3.40;41.80
12006;DHT22;6062;47.294;12.182;2023-02-12T03:06:37;3.40;41.60
12006;DHT22;6062;47.294;12.182;2023-02-12T03:09:18;3.30;42.00
12006;DHT22;6062;47.294;12.182;2023-02-12T03:11:54;3.30;42.40
12006;DHT22;6062;47.294;12.182;2023-02-12T03:14:30;3.30;42.30
12006;DHT22;6062;47.294;12.182;2023-02-12T03:17:06;3.20;42.50
12006;DHT22;6062;47.294;12.182;2023-02-12T03:19:41;3.20;42.80
12006;DHT22;6062;47.294;12.182;2023-02-12T03:22:19;3.20;42.90
12006;DHT22;6062;47.294;12.182;2023-02-12T03:25:00;3.20;42.80
12006;DHT22;6062;47.294;12.182;2023-02-12T03:27:41;3.30;43.20
12006;DHT22;6062;47.294;12.182;2023-02-12T03:30:09;3.30;44.00
12006;DHT22;6062;47.294;12.182;2023-02-12T03:32:54;3.30;43.40
12006;DHT22;6062;47.294;12.182;2023-02-12T03:35:33;3.40;44.00
12006;DHT22;6062;47.294;12.182;2023-02-12T03:38:19;3.40;44.00
12006;DHT22;6062;47.294;12.182;2023-02-12T03:41:31;3.50;44.20
12006;DHT22;6062;47.294;12.182;2023-02-12T03:44:22;3.50;44.20
12006;DHT22;6062;47.294;12.182;2023-02-12T03:47:12;3.60;44.40
12006;DHT22;6062;47.294;12.182;2023-02-12T03:52:35;3.60;44.60
12006;DHT22;6062;47.294;12.182;2023-02-12T03:55:02;3.60;44.90
12006;DHT22;6062;47.294;12.182;2023-02-12T03:57:32;3.60;45.60
12006;DHT22;6062;47.294;12.182;2023-02-12T04:00:07;3.50;45.90
12006;DHT22;6062;47.294;12.182;2023-02-12T04:02:35;3.50;46.00
12006;DHT22;6062;47.294;12.182;2023-02-12T04:05:08;3.50;45.70
12006;DHT22;6062;47.294;12.182;2023-02-12T04:07:41;3.60;45.00
12006;DHT22;6062;47.294;12.182;2023-02-12T04:10:07;3.60;44.60
12006;DHT22;6062;47.294;12.182;2023-02-12T04:21:12;3.50;42.40
12006;DHT22;6062;47.294;12.182;2023-02-12T04:24:27;3.50;42.20
12006;DHT22;6062;47.294;12.182;2023-02-12T04:27:36;3.50;41.80
12006;DHT22;6062;47.294;12.182;2023-02-12T04:33:03;3.40;42.60
12006;DHT22;6062;47.294;12.182;2023-02-12T04:36:02;3.40;42.90
12006;DHT22;6062;47.294;12.182;2023-02-12T04:38:43;3.40;42.90
12006;DHT22;6062;47.294;12.182;2023-02-12T04:41:16;3.40;42.70
12006;DHT22;6062;47.294;12.182;2023-02-12T04:43:42;3.40;42.30
12006;DHT22;6062;47.294;12.182;2023-02-12T04:46:07;3.40;41.90
12006;DHT22;6062;47.294;12.182;2023-02-12T04:48:34;3.40;42.00
12006;DHT22;6062;47.294;12.182;2023-02-12T04:51:05;3.40;42.60
12006;DHT22;6062;47.294;12.182;2023-02-12T04:53:31;3.40;42.70
12006;DHT22;6062;47.294;12.182;2023-02-12T04:55:57;3.40;42.70
12006;DHT22;6062;47.294;12.182;2023-02-12T04:58:22;3.50;43.00
12006;DHT22;6062;47.294;12.182;2023-02-12T05:00:48;3.50;42.70
12006;DHT22;6062;47.294;12.182;2023-02-12T05:03:14;3.50;42.90
12006;DHT22;6062;47.294;12.182;2023-02-12T05:05:39;3.60;43.00
12006;DHT22;6062;47.294;12.182;2023-02-12T05:08:05;3.60;43.00
12006;DHT22;6062;47.294;12.182;2023-02-12T05:10:31;3.60;43.10
12006;DHT22;6062;47.294;12.182;2023-02-12T05:12:56;3.60;43.40
12006;DHT22;6062;47.294;12.182;2023-02-12T05:15:22;3.60;43.80
12006;DHT22;6062;47.294;12.182;2023-02-12T05:17:48;3.60;44.20
12006;DHT22;6062;47.294;12.182;2023-02-12T05:20:13;3.60;44.50
12006;DHT22;6062;47.294;12.182;2023-02-12T05:22:39;3.60;45.20
12006;DHT22;6062;47.294;12.182;2023-02-12T05:25:06;3.60;45.60
12006;DHT22;6062;47.294;12.182;2023-02-12T05:27:31;3.60;45.40
12006;DHT22;6062;47.294;12.182;2023-02-12T05:29:57;3.60;45.00
12006;DHT22;6062;47.294;12.182;2023-02-12T05:32:23;3.60;44.80
12006;DHT22;6062;47.294;12.182;2023-02-12T05:34:49;3.60;44.30
12006;DHT22;6062;47.294;12.182;2023-02-12T05:37:14;3.60;44.40
12006;DHT22;6062;47.294;12.182;2023-02-12T05:39:40;3.60;44.80
12006;DHT22;6062;47.294;12.182;2023-02-12T05:42:06;3.60;44.80
12006;DHT22;6062;47.294;12.182;2023-02-12T05:44:32;3.50;44.80
12006;DHT22;6062;47.294;12.182;2023-02-12T05:46:57;3.50;45.00
12006;DHT22;6062;47.294;12.182;2023-02-12T05:49:23;3.50;44.60
12006;DHT22;6062;47.294;12.182;2023-02-12T05:51:49;3.50;44.30
12006;DHT22;6062;47.294;12.182;2023-02-12T05:54:14;3.50;44.40
12006;DHT22;6062;47.294;12.182;2023-02-12T05:56:45;3.40;44.20
12006;DHT22;6062;47.294;12.182;2023-02-12T05:59:20;3.40;43.60
12006;DHT22;6062;47.294;12.182;2023-02-12T06:01:49;3.40;43.10
12006;DHT22;6062;47.294;12.182;2023-02-12T06:04:22;3.30;43.00
12006;DHT22;6062;47.294;12.182;2023-02-12T06:06:50;3.30;43.40
12006;DHT22;6062;47.294;12.182;2023-02-12T06:09:16;3.30;43.90
12006;DHT22;6062;47.294;12.182;2023-02-12T06:11:42;3.30;44.10
12006;DHT22;6062;47.294;12.182;2023-02-12T06:14:12;3.20;44.00
12006;DHT22;6062;47.294;12.182;2023-02-12T06:16:39;3.20;44.10
12006;DHT22;6062;47.294;12.182;2023-02-12T06:19:08;3.20;44.50
12006;DHT22;6062;47.294;12.182;2023-02-12T06:21:34;3.20;45.00
12006;DHT22;6062;47.294;12.182;2023-02-12T06:24:00;3.10;45.10
12006;DHT22;6062;47.294;12.182;2023-02-12T06:26:26;3.10;45.10
12006;DHT22;6062;47.294;12.182;2023-02-12T06:28:52;3.10;45.20
12006;DHT22;6062;47.294;12.182;2023-02-12T06:31:26;3.10;45.20
12006;DHT22;6062;47.294;12.182;2023-02-12T06:33:56;3.10;45.00
12006;DHT22;6062;47.294;12.182;2023-02-12T06:36:24;3.10;44.90
12006;DHT22;6062;47.294;12.182;2023-02-12T06:38:50;3.10;45.10
12006;DHT22;6062;47.294;12.182;2023-02-12T06:41:16;3.10;45.40
12006;DHT22;6062;47.294;12.182;2023-02-12T06:43:42;3.10;45.50
12006;DHT22;6062;47.294;12.182;2023-02-12T06:46:09;3.10;45.60
12006;DHT22;6062;47.294;12.182;2023-02-12T06:48:35;3.10;45.70
12006;DHT22;6062;47.294;12.182;2023-02-12T06:51:19;3.10;45.60
12006;DHT22;6062;47.294;12.182;2023-02-12T06:53:47;3.10;45.60
12006;DHT22;6062;47.294;12.182;2023-02-12T06:56:13;3.10;45.50
12006;DHT22;6062;47.294;12.182;2023-02-12T06:58:40;3.10;45.60
12006;DHT22;6062;47.294;12.182;2023-02-12T07:01:14;3.10;45.70
12006;DHT22;6062;47.294;12.182;2023-02-12T07:03:42;3.10;45.70
12006;DHT22;6062;47.294;12.182;2023-02-12T07:06:11;3.10;45.80
12006;DHT22;6062;47.294;12.182;2023-02-12T07:08:38;3.10;46.50
12006;DHT22;6062;47.294;12.182;2023-02-12T07:11:03;3.10;47.70
12006;DHT22;6062;47.294;12.182;2023-02-12T07:13:30;3.20;48.70
12006;DHT22;6062;47.294;12.182;2023-02-12T07:16:02;3.20;49.50
12006;DHT22;6062;47.294;12.182;2023-02-12T07:18:29;3.30;50.30
12006;DHT22;6062;47.294;12.182;2023-02-12T07:20:55;3.40;48.80
12006;DHT22;6062;47.294;12.182;2023-02-12T07:23:21;3.40;45.30
12006;DHT22;6062;47.294;12.182;2023-02-12T07:26:00;3.50;44.70
12006;DHT22;6062;47.294;12.182;2023-02-12T07:28:28;3.50;44.20
12006;DHT22;6062;47.294;12.182;2023-02-12T07:30:58;3.50;44.00
12006;DHT22;6062;47.294;12.182;2023-02-12T07:33:24;3.50;44.40
12006;DHT22;6062;47.294;12.182;2023-02-12T07:35:50;3.60;44.90
12006;DHT22;6062;47.294;12.182;2023-02-12T07:38:15;3.60;44.50
12006;DHT22;6062;47.294;12.182;2023-02-12T07:40:41;3.70;44.10
12006;DHT22;6062;47.294;12.182;2023-02-12T07:43:08;3.70;44.50
12006;DHT22;6062;47.294;12.182;2023-02-12T07:45:33;3.70;44.80
12006;DHT22;6062;47.294;12.182;2023-02-12T07:47:59;3.80;45.10
12006;DHT22;6062;47.294;12.182;2023-02-12T07:50:25;3.90;45.00
12006;DHT22;6062;47.294;12.182;2023-02-12T07:52:50;3.90;44.60
12006;DHT22;6062;47.294;12.182;2023-02-12T07:55:16;4.00;44.90
12006;DHT22;6062;47.294;12.182;2023-02-12T07:57:42;4.10;44.70
12006;DHT22;6062;47.294;12.182;2023-02-12T08:00:08;4.20;44.60
12006;DHT22;6062;47.294;12.182;2023-02-12T08:02:34;4.30;45.10
12006;DHT22;6062;47.294;12.182;2023-02-12T08:05:00;4.40;45.50
12006;DHT22;6062;47.294;12.182;2023-02-12T08:07:26;4.50;45.60
12006;DHT22;6062;47.294;12.182;2023-02-12T08:09:51;4.60;45.70
12006;DHT22;6062;47.294;12.182;2023-02-12T08:12:18;4.70;45.80
12006;DHT22;6062;47.294;12.182;2023-02-12T08:14:43;4.80;45.50
12006;DHT22;6062;47.294;12.182;2023-02-12T08:17:10;5.00;44.60
12006;DHT22;6062;47.294;12.182;2023-02-12T08:19:36;5.10;44.80
12006;DHT22;6062;47.294;12.182;2023-02-12T08:22:02;5.40;46.00
12006;DHT22;6062;47.294;12.182;2023-02-12T08:24:28;5.80;46.80
12006;DHT22;6062;47.294;12.182;2023-02-12T08:26:55;6.20;47.00
12006;DHT22;6062;47.294;12.182;2023-02-12T08:29:24;6.60;46.80
12006;DHT22;6062;47.294;12.182;2023-02-12T08:31:57;7.10;46.50
12006;DHT22;6062;47.294;12.182;2023-02-12T08:34:30;7.70;46.20
12006;DHT22;6062;47.294;12.182;2023-02-12T08:36:58;8.20;45.90
12006;DHT22;6062;47.294;12.182;2023-02-12T08:39:26;8.60;44.80
12006;DHT22;6062;47.294;12.182;2023-02-12T08:41:55;9.10;44.00
12006;DHT22;6062;47.294;12.182;2023-02-12T08:44:21;9.50;43.20
12006;DHT22;6062;47.294;12.182;2023-02-12T08:46:51;9.90;42.50
12006;DHT22;6062;47.294;12.182;2023-02-12T08:49:19;10.20;42.10
12006;DHT22;6062;47.294;12.182;2023-02-12T08:51:52;10.50;41.30
12006;DHT22;6062;47.294;12.182;2023-02-12T08:54:24;10.90;41.20
12006;DHT22;6062;47.294;12.182;2023-02-12T08:56:59;11.30;39.90
12006;DHT22;6062;47.294;12.182;2023-02-12T08:59:26;11.60;38.00
12006;DHT22;6062;47.294;12.182;2023-02-12T09:01:53;11.80;37.60
12006;DHT22;6062;47.294;12.182;2023-02-12T09:04:25;12.00;37.60
12006;DHT22;6062;47.294;12.182;2023-02-12T09:06:52;12.10;37.60
12006;DHT22;6062;47.294;12.182;2023-02-12T09:09:19;12.30;37.50
12006;DHT22;6062;47.294;12.182;2023-02-12T09:11:46;12.40;37.30
12006;DHT22;6062;47.294;12.182;2023-02-12T09:14:14;12.50;36.50
12006;DHT22;6062;47.294;12.182;2023-02-12T09:16:41;12.60;36.70
12006;DHT22;6062;47.294;12.182;2023-02-12T09:19:12;12.80;36.50
12006;DHT22;6062;47.294;12.182;2023-02-12T09:21:38;13.00;36.50
12006;DHT22;6062;47.294;12.182;2023-02-12T09:24:05;13.30;36.50
12006;DHT22;6062;47.294;12.182;2023-02-12T09:26:30;13.50;36.00
12006;DHT22;6062;47.294;12.182;2023-02-12T09:28:57;13.80;36.10
12006;DHT22;6062;47.294;12.182;2023-02-12T09:31:28;14.10;36.50
12006;DHT22;6062;47.294;12.182;2023-02-12T09:33:58;14.50;36.70
12006;DHT22;6062;47.294;12.182;2023-02-12T09:36:26;15.00;36.40
12006;DHT22;6062;47.294;12.182;2023-02-12T09:38:53;15.40;35.90
12006;DHT22;6062;47.294;12.182;2023-02-12T09:44:10;16.30;34.40
12006;DHT22;6062;47.294;12.182;2023-02-12T09:46:54;16.80;32.70
12006;DHT22;6062;47.294;12.182;2023-02-12T09:52:21;17.60;30.40
12006;DHT22;6062;47.294;12.182;2023-02-12T09:54:52;18.00;30.20
12006;DHT22;6062;47.294;12.182;2023-02-12T09:57:33;18.30;30.20
12006;DHT22;6062;47.294;12.182;2023-02-12T10:00:13;18.60;29.90
12006;DHT22;6062;47.294;12.182;2023-02-12T10:02:43;18.90;29.40
12006;DHT22;6062;47.294;12.182;2023-02-12T10:05:23;19.10;29.40
12006;DHT22;6062;47.294;12.182;2023-02-12T10:08:36;19.40;28.70
12006;DHT22;6062;47.294;12.182;2023-02-12T10:17:11;20.30;29.10
12006;DHT22;6062;47.294;12.182;2023-02-12T10:25:47;21.10;26.90
12006;DHT22;6062;47.294;12.182;2023-02-12T10:28:27;21.10;26.90
12006;DHT22;6062;47.294;12.182;2023-02-12T10:31:20;21.00;26.50
12006;DHT22;6062;47.294;12.182;2023-02-12T10:33:51;20.80;26.40
12006;DHT22;6062;47.294;12.182;2023-02-12T10:39:24;20.10;26.70
12006;DHT22;6062;47.294;12.182;2023-02-12T10:42:16;19.70;26.90
12006;DHT22;6062;47.294;12.182;2023-02-12T10:44:46;19.20;27.40
12006;DHT22;6062;47.294;12.182;2023-02-12T10:47:19;18.90;28.20
12006;DHT22;6062;47.294;12.182;2023-02-12T10:49:55;18.60;28.80
12006;DHT22;6062;47.294;12.182;2023-02-12T10:52:29;18.40;29.20
12006;DHT22;6062;47.294;12.182;2023-02-12T10:55:25;18.40;29.80
12006;DHT22;6062;47.294;12.182;2023-02-12T10:57:54;18.40;30.00
12006;DHT22;6062;47.294;12.182;2023-02-12T11:00:33;18.70;30.30
12006;DHT22;6062;47.294;12.182;2023-02-12T11:05:30;19.40;29.80
12006;DHT22;6062;47.294;12.182;2023-02-12T11:07:57;19.80;29.60
12006;DHT22;6062;47.294;12.182;2023-02-12T11:10:28;20.20;29.30
12006;DHT22;6062;47.294;12.182;2023-02-12T11:13:02;20.50;28.40
12006;DHT22;6062;47.294;12.182;2023-02-12T11:15:45;20.90;28.40
12006;DHT22;6062;47.294;12.182;2023-02-12T11:18:25;21.20;27.80
12006;DHT22;6062;47.294;12.182;2023-02-12T11:21:02;21.60;27.60
12006;DHT22;6062;47.294;12.182;2023-02-12T11:23:36;21.90;27.20
12006;DHT22;6062;47.294;12.182;2023-02-12T11:26:27;22.20;26.90
12006;DHT22;6062;47.294;12.182;2023-02-12T11:29:01;22.40;27.30
12006;DHT22;6062;47.294;12.182;2023-02-12T11:31:41;22.70;26.50
12006;DHT22;6062;47.294;12.182;2023-02-12T11:34:23;22.80;26.30
12006;DHT22;6062;47.294;12.182;2023-02-12T11:36:51;23.00;26.00
12006;DHT22;6062;47.294;12.182;2023-02-12T11:39:27;23.30;25.80
12006;DHT22;6062;47.294;12.182;2023-02-12T11:42:17;23.40;25.70
12006;DHT22;6062;47.294;12.182;2023-02-12T11:44:53;23.60;25.50
12006;DHT22;6062;47.294;12.182;2023-02-12T11:53:01;23.90;25.20
12006;DHT22;6062;47.294;12.182;2023-02-12T11:55:35;23.80;24.80
12006;DHT22;6062;47.294;12.182;2023-02-12T11:58:17;23.60;24.80
12006;DHT22;6062;47.294;12.182;2023-02-12T12:01:08;23.30;24.60
12006;DHT22;6062;47.294;12.182;2023-02-12T12:06:45;22.70;25.00
12006;DHT22;6062;47.294;12.182;2023-02-12T12:09:22;22.30;25.70
12006;DHT22;6062;47.294;12.182;2023-02-12T12:18:44;21.30;25.80
12006;DHT22;6062;47.294;12.182;2023-02-12T12:21:54;21.00;26.50
12006;DHT22;6062;47.294;12.182;2023-02-12T12:24:51;20.60;26.20
12006;DHT22;6062;47.294;12.182;2023-02-12T12:27:31;20.30;26.30
12006;DHT22;6062;47.294;12.182;2023-02-12T12:33:47;19.60;26.90
12006;DHT22;6062;47.294;12.182;2023-02-12T12:36:49;19.20;26.10
12006;DHT22;6062;47.294;12.182;2023-02-12T12:39:40;18.80;26.10
12006;DHT22;6062;47.294;12.182;2023-02-12T12:46:09;18.00;27.20
12006;DHT22;6062;47.294;12.182;2023-02-12T12:51:57;17.20;27.40
12006;DHT22;6062;47.294;12.182;2023-02-12T13:06:25;15.50;29.70
12006;DHT22;6062;47.294;12.182;2023-02-12T13:11:53;15.00;30.40
12006;DHT22;6062;47.294;12.182;2023-02-12T13:17:29;14.70;31.00
12006;DHT22;6062;47.294;12.182;2023-02-12T13:25:42;14.20;31.80
12006;DHT22;6062;47.294;12.182;2023-02-12T13:28:39;14.10;32.20
12006;DHT22;6062;47.294;12.182;2023-02-12T13:31:13;13.90;32.00
12006;DHT22;6062;47.294;12.182;2023-02-12T13:34:00;13.80;32.50
12006;DHT22;6062;47.294;12.182;2023-02-12T13:36:29;13.70;33.00
12006;DHT22;6062;47.294;12.182;2023-02-12T13:42:15;13.40;33.50
12006;DHT22;6062;47.294;12.182;2023-02-12T13:45:20;13.30;34.20
12006;DHT22;6062;47.294;12.182;2023-02-12T13:51:29;13.20;34.80
12006;DHT22;6062;47.294;12.182;2023-02-12T13:56:54;13.10;35.10
12006;DHT22;6062;47.294;12.182;2023-02-12T14:04:54;12.80;35.10
12006;DHT22;6062;47.294;12.182;2023-02-12T14:07:24;12.70;35.20
12006;DHT22;6062;47.294;12.182;2023-02-12T14:10:40;12.60;35.10
12006;DHT22;6062;47.294;12.182;2023-02-12T14:13:13;12.50;35.20
12006;DHT22;6062;47.294;12.182;2023-02-12T14:15:54;12.40;35.80
12006;DHT22;6062;47.294;12.182;2023-02-12T14:23:44;12.00;37.10
12006;DHT22;6062;47.294;12.182;2023-02-12T14:26:14;11.90;37.10
12006;DHT22;6062;47.294;12.182;2023-02-12T14:33:47;11.50;37.90
12006;DHT22;6062;47.294;12.182;2023-02-12T14:36:41;11.40;38.20
12006;DHT22;6062;47.294;12.182;2023-02-12T14:41:45;11.10;38.70
12006;DHT22;6062;47.294;12.182;2023-02-12T14:47:04;10.70;38.90
12006;DHT22;6062;47.294;12.182;2023-02-12T14:49:51;10.50;38.80
12006;DHT22;6062;47.294;12.182;2023-02-12T14:52:25;10.30;38.60
12006;DHT22;6062;47.294;12.182;2023-02-12T14:54:56;10.20;38.80
12006;DHT22;6062;47.294;12.182;2023-02-12T14:57:29;10.00;39.00
12006;DHT22;6062;47.294;12.182;2023-02-12T15:00:09;9.80;39.10
12006;DHT22;6062;47.294;12.182;2023-02-12T15:05:46;9.30;40.30
12006;DHT22;6062;47.294;12.182;2023-02-12T15:08:31;9.10;40.70
12006;DHT22;6062;47.294;12.182;2023-02-12T15:11:38;8.90;41.10
12006;DHT22;6062;47.294;12.182;2023-02-12T15:14:21;8.70;41.50
12006;DHT22;6062;47.294;12.182;2023-02-12T15:22:35;8.10;43.10
12006;DHT22;6062;47.294;12.182;2023-02-12T15:27:45;7.70;43.20
12006;DHT22;6062;47.294;12.182;2023-02-12T15:30:15;7.60;43.50
12006;DHT22;6062;47.294;12.182;2023-02-12T15:32:42;7.40;43.70
12006;DHT22;6062;47.294;12.182;2023-02-12T15:35:29;7.20;44.00
12006;DHT22;6062;47.294;12.182;2023-02-12T15:37:57;7.10;44.70
12006;DHT22;6062;47.294;12.182;2023-02-12T15:40:28;6.90;44.80
12006;DHT22;6062;47.294;12.182;2023-02-12T15:42:59;6.80;45.10
12006;DHT22;6062;47.294;12.182;2023-02-12T15:45:33;6.60;45.20
12006;DHT22;6062;47.294;12.182;2023-02-12T15:48:12;6.50;45.60
12006;DHT22;6062;47.294;12.182;2023-02-12T15:50:50;6.30;45.80
12006;DHT22;6062;47.294;12.182;2023-02-12T15:53:21;6.20;46.00
12006;DHT22;6062;47.294;12.182;2023-02-12T15:55:49;6.10;46.10
12006;DHT22;6062;47.294;12.182;2023-02-12T15:58:58;6.00;46.20
12006;DHT22;6062;47.294;12.182;2023-02-12T16:01:22;5.90;46.50
12006;DHT22;6062;47.294;12.182;2023-02-12T16:03:51;5.80;46.50
12006;DHT22;6062;47.294;12.182;2023-02-12T16:06:21;5.70;46.70
12006;DHT22;6062;47.294;12.182;2023-02-12T16:08:55;5.60;46.80
12006;DHT22;6062;47.294;12.182;2023-02-12T16:11:33;5.50;46.90
12006;DHT22;6062;47.294;12.182;2023-02-12T16:14:06;5.40;46.90
12006;DHT22;6062;47.294;12.182;2023-02-12T16:16:47;5.30;47.10
12006;DHT22;6062;47.294;12.182;2023-02-12T16:24:36;5.10;47.50
12006;DHT22;6062;47.294;12.182;2023-02-12T16:27:14;5.00;48.00
12006;DHT22;6062;47.294;12.182;2023-02-12T16:29:46;4.90;48.10
12006;DHT22;6062;47.294;12.182;2023-02-12T16:35:25;4.80;48.00
12006;DHT22;6062;47.294;12.182;2023-02-12T16:38:03;4.70;48.20
12006;DHT22;6062;47.294;12.182;2023-02-12T16:41:20;4.70;47.80
12006;DHT22;6062;47.294;12.182;2023-02-12T16:46:19;4.50;47.60
12006;DHT22;6062;47.294;12.182;2023-02-12T16:48:48;4.40;47.70
12006;DHT22;6062;47.294;12.182;2023-02-12T16:51:35;4.40;47.90
12006;DHT22;6062;47.294;12.182;2023-02-12T16:54:03;4.30;48.10
12006;DHT22;6062;47.294;12.182;2023-02-12T16:56:48;4.30;48.00
12006;DHT22;6062;47.294;12.182;2023-02-12T16:59:14;4.20;48.10
12006;DHT22;6062;47.294;12.182;2023-02-12T17:01:39;4.20;48.40
12006;DHT22;6062;47.294;12.182;2023-02-12T17:04:07;4.10;48.20
12006;DHT22;6062;47.294;12.182;2023-02-12T17:06:38;4.10;48.50
12006;DHT22;6062;47.294;12.182;2023-02-12T17:09:04;4.00;48.30
12006;DHT22;6062;47.294;12.182;2023-02-12T17:11:30;4.00;48.50
12006;DHT22;6062;47.294;12.182;2023-02-12T17:13:55;4.00;48.90
12006;DHT22;6062;47.294;12.182;2023-02-12T17:16:22;3.90;49.10
12006;DHT22;6062;47.294;12.182;2023-02-12T17:18:47;3.90;49.00
12006;DHT22;6062;47.294;12.182;2023-02-12T17:21:31;3.90;49.10
12006;DHT22;6062;47.294;12.182;2023-02-12T17:24:03;3.80;49.40
12006;DHT22;6062;47.294;12.182;2023-02-12T17:26:50;3.80;49.70
12006;DHT22;6062;47.294;12.182;2023-02-12T17:29:17;3.80;49.90
12006;DHT22;6062;47.294;12.182;2023-02-12T17:31:44;3.70;50.10
12006;DHT22;6062;47.294;12.182;2023-02-12T17:34:10;3.70;50.20
12006;DHT22;6062;47.294;12.182;2023-02-12T17:36:37;3.70;49.90
12006;DHT22;6062;47.294;12.182;2023-02-12T17:39:04;3.60;50.20
12006;DHT22;6062;47.294;12.182;2023-02-12T17:41:31;3.60;50.30
12006;DHT22;6062;47.294;12.182;2023-02-12T17:43:57;3.60;50.40
12006;DHT22;6062;47.294;12.182;2023-02-12T17:46:24;3.60;50.70
12006;DHT22;6062;47.294;12.182;2023-02-12T17:48:51;3.70;50.90
12006;DHT22;6062;47.294;12.182;2023-02-12T17:51:18;3.70;51.10
12006;DHT22;6062;47.294;12.182;2023-02-12T17:53:44;3.70;51.20
12006;DHT22;6062;47.294;12.182;2023-02-12T17:56:12;3.80;51.10
12006;DHT22;6062;47.294;12.182;2023-02-12T17:58:41;3.80;51.20
12006;DHT22;6062;47.294;12.182;2023-02-12T18:01:10;3.80;51.00
12006;DHT22;6062;47.294;12.182;2023-02-12T18:03:37;3.90;51.20
12006;DHT22;6062;47.294;12.182;2023-02-12T18:06:04;3.90;51.10
12006;DHT22;6062;47.294;12.182;2023-02-12T18:08:31;3.90;51.00
12006;DHT22;6062;47.294;12.182;2023-02-12T18:10:57;4.00;51.00
12006;DHT22;6062;47.294;12.182;2023-02-12T18:13:23;4.00;50.80
12006;DHT22;6062;47.294;12.182;2023-02-12T18:15:50;4.00;50.70
12006;DHT22;6062;47.294;12.182;2023-02-12T18:18:15;4.10;50.70
12006;DHT22;6062;47.294;12.182;2023-02-12T18:20:45;4.10;50.80
12006;DHT22;6062;47.294;12.182;2023-02-12T18:23:11;4.10;50.90
12006;DHT22;6062;47.294;12.182;2023-02-12T18:25:41;4.10;50.90
12006;DHT22;6062;47.294;12.182;2023-02-12T18:28:08;4.20;50.70
12006;DHT22;6062;47.294;12.182;2023-02-12T18:30:35;4.20;50.40
12006;DHT22;6062;47.294;12.182;2023-02-12T18:33:06;4.20;50.50
12006;DHT22;6062;47.294;12.182;2023-02-12T18:35:32;4.20;50.00
12006;DHT22;6062;47.294;12.182;2023-02-12T18:37:58;4.20;49.70
12006;DHT22;6062;47.294;12.182;2023-02-12T18:40:24;4.20;49.50
12006;DHT22;6062;47.294;12.182;2023-02-12T18:42:51;4.20;49.20
12006;DHT22;6062;47.294;12.182;2023-02-12T18:45:17;4.20;49.10
12006;DHT22;6062;47.294;12.182;2023-02-12T18:47:43;4.10;49.00
12006;DHT22;6062;47.294;12.182;2023-02-12T18:50:10;4.10;49.00
12006;DHT22;6062;47.294;12.182;2023-02-12T18:52:36;4.00;49.00
12006;DHT22;6062;47.294;12.182;2023-02-12T18:55:05;4.00;49.10